createdAt,value
2022-09-02T00:01:47.397Z,101078.00
2022-09-02T00:04:24.431Z,101066.00
2022-09-02T00:06:54.345Z,101083.00
2022-09-02T00:09:25.699Z,101079.00
2022-09-02T00:11:55.254Z,101070.00
2022-09-02T00:14:34.115Z,101067.00
2022-09-02T00:17:01.765Z,101073.00
2022-09-02T00:19:30.941Z,101065.00
2022-09-02T00:22:00.087Z,101067.00
2022-09-02T00:24:27.296Z,101063.00
2022-09-02T00:26:56.873Z,101063.00
2022-09-02T00:29:26.342Z,101060.00
2022-09-02T00:31:55.485Z,101072.00
2022-09-02T00:34:23.259Z,101062.00
2022-09-02T00:36:50.175Z,101052.00
2022-09-02T00:39:17.212Z,101065.00
2022-09-02T00:41:45.394Z,101065.00
2022-09-02T00:44:17.265Z,101066.00
2022-09-02T00:46:46.009Z,101072.00
2022-09-02T00:49:30.910Z,101057.00
2022-09-02T00:52:10.755Z,101055.00
2022-09-02T00:54:48.509Z,101058.00
2022-09-02T00:57:22.135Z,101058.00
2022-09-02T00:59:58.701Z,101060.00
2022-09-02T01:02:29.035Z,101056.00
2022-09-02T01:04:56.964Z,101054.00
2022-09-02T01:07:28.545Z,101036.00
2022-09-02T01:09:57.047Z,101052.00
2022-09-02T01:12:27.791Z,101049.00
2022-09-02T01:14:54.915Z,101053.00
2022-09-02T01:17:21.861Z,101044.00
2022-09-02T01:19:57.065Z,101055.00
2022-09-02T01:22:32.223Z,101060.00
2022-09-02T01:25:07.413Z,101057.00
2022-09-02T01:27:34.987Z,101046.00
2022-09-02T01:30:01.973Z,101052.00
2022-09-02T01:32:31.011Z,101061.00
2022-09-02T01:34:58.139Z,101057.00
2022-09-02T01:37:25.868Z,101057.00
2022-09-02T01:39:53.495Z,101033.00
2022-09-02T01:42:21.928Z,101053.00
2022-09-02T01:44:49.041Z,101051.00
2022-09-02T01:47:21.147Z,101048.00
2022-09-02T01:49:49.753Z,101048.00
2022-09-02T01:52:19.069Z,101055.00
2022-09-02T01:54:46.455Z,101051.00
2022-09-02T01:57:13.672Z,101040.00
2022-09-02T01:59:41.443Z,101051.00
2022-09-02T02:02:10.688Z,101054.00
2022-09-02T02:04:38.723Z,101053.00
2022-09-02T02:07:07.022Z,101056.00
2022-09-02T02:09:33.953Z,101051.00
2022-09-02T02:12:00.874Z,101057.00
2022-09-02T02:14:27.839Z,101057.00
2022-09-02T02:16:54.873Z,101064.00
2022-09-02T02:19:21.847Z,101042.00
2022-09-02T02:21:48.968Z,101059.00
2022-09-02T02:24:16.117Z,101059.00
2022-09-02T02:26:43.163Z,101045.00
2022-09-02T02:29:10.717Z,101061.00
2022-09-02T02:31:37.973Z,101055.00
2022-09-02T02:34:05.515Z,101071.00
2022-09-02T02:36:32.893Z,101045.00
2022-09-02T02:39:01.534Z,101060.00
2022-09-02T02:41:31.497Z,101060.00
2022-09-02T02:43:59.059Z,101062.00
2022-09-02T02:46:26.547Z,101067.00
2022-09-02T02:48:53.589Z,101046.00
2022-09-02T02:51:20.509Z,101056.00
2022-09-02T02:53:47.591Z,101078.00
2022-09-02T02:56:14.702Z,101079.00
2022-09-02T02:58:41.646Z,101072.00
2022-09-02T03:01:08.799Z,101099.00
2022-09-02T03:03:35.857Z,101093.00
2022-09-02T03:06:03.083Z,101090.00
2022-09-02T03:08:30.171Z,101104.00
2022-09-02T03:10:57.862Z,101096.00
2022-09-02T03:13:26.923Z,101091.00
2022-09-02T03:15:56.509Z,101084.00
2022-09-02T03:18:23.545Z,101090.00
2022-09-02T03:20:50.820Z,101095.00
2022-09-02T03:23:18.884Z,101072.00
2022-09-02T03:25:46.460Z,101100.00
2022-09-02T03:28:14.063Z,101090.00
2022-09-02T03:30:42.065Z,101085.00
2022-09-02T03:33:09.433Z,101085.00
2022-09-02T03:35:42.183Z,101067.00
2022-09-02T03:38:11.337Z,101077.00
2022-09-02T03:40:40.149Z,101088.00
2022-09-02T03:43:07.236Z,101080.00
2022-09-02T03:45:34.216Z,101086.00
2022-09-02T03:48:01.305Z,101084.00
2022-09-02T03:50:32.778Z,101060.00
2022-09-02T03:53:00.855Z,101088.00
2022-09-02T03:55:28.512Z,101078.00
2022-09-02T03:57:55.616Z,101079.00
2022-09-02T04:00:28.967Z,101089.00
2022-09-02T04:02:56.296Z,101088.00
2022-09-02T04:05:24.644Z,101082.00
2022-09-02T04:07:52.570Z,101084.00
2022-09-02T04:10:21.947Z,101088.00
2022-09-02T04:12:50.916Z,101092.00
2022-09-02T04:15:20.415Z,101090.00
2022-09-02T04:17:47.405Z,101092.00
2022-09-02T04:20:15.142Z,101092.00
2022-09-02T04:22:42.255Z,101057.00
2022-09-02T04:25:10.303Z,101094.00
2022-09-02T04:27:38.130Z,101096.00
2022-09-02T04:30:07.572Z,101091.00
2022-09-02T04:32:39.870Z,101094.00
2022-09-02T04:35:08.234Z,101088.00
2022-09-02T04:37:35.219Z,101084.00
2022-09-02T04:40:02.623Z,101089.00
2022-09-02T04:42:29.626Z,101075.00
2022-09-02T04:44:57.890Z,101083.00
2022-09-02T04:47:26.523Z,101078.00
2022-09-02T04:49:53.875Z,101085.00
2022-09-02T04:52:21.035Z,101084.00
2022-09-02T04:54:48.837Z,101083.00
2022-09-02T04:57:19.137Z,101081.00
2022-09-02T04:59:46.267Z,101093.00
2022-09-02T05:02:13.490Z,101085.00
2022-09-02T05:04:40.511Z,101086.00
2022-09-02T05:07:07.515Z,101072.00
2022-09-02T05:09:34.663Z,101083.00
2022-09-02T05:12:04.381Z,101086.00
2022-09-02T05:14:32.862Z,101083.00
2022-09-02T05:17:05.223Z,101062.00
2022-09-02T05:19:34.759Z,101086.00
2022-09-02T05:22:02.344Z,101080.00
2022-09-02T05:24:29.697Z,101080.00
2022-09-02T05:26:56.886Z,101068.00
2022-09-02T05:29:24.126Z,101072.00
2022-09-02T05:31:51.067Z,101063.00
2022-09-02T05:34:18.629Z,101064.00
2022-09-02T05:36:46.454Z,101082.00
2022-09-02T05:39:13.560Z,101079.00
2022-09-02T05:41:40.716Z,101073.00
2022-09-02T05:44:07.908Z,101087.00
2022-09-02T05:46:36.421Z,101091.00
2022-09-02T05:49:09.132Z,101085.00
2022-09-02T05:51:49.471Z,101099.00
2022-09-02T05:54:24.315Z,101096.00
2022-09-02T05:56:59.083Z,101099.00
2022-09-02T05:59:31.606Z,101092.00
2022-09-02T06:01:59.854Z,101104.00
2022-09-02T06:04:29.244Z,101111.00
2022-09-02T06:06:56.177Z,101113.00
2022-09-02T06:09:24.889Z,101109.00
2022-09-02T06:11:52.166Z,101118.00
2022-09-02T06:14:23.097Z,101120.00
2022-09-02T06:16:51.752Z,101116.00
2022-09-02T06:19:20.213Z,101109.00
2022-09-02T06:21:49.320Z,101110.00
2022-09-02T06:24:16.727Z,101120.00
2022-09-02T06:26:44.359Z,101118.00
2022-09-02T06:29:12.435Z,101123.00
2022-09-02T06:31:43.584Z,101115.00
2022-09-02T06:34:13.537Z,101117.00
2022-09-02T06:36:46.981Z,101124.00
2022-09-02T06:39:20.064Z,101119.00
2022-09-02T06:41:49.108Z,101122.00
2022-09-02T06:44:19.007Z,101124.00
2022-09-02T06:47:08.978Z,101127.00
2022-09-02T06:49:35.822Z,101123.00
2022-09-02T06:52:05.537Z,101125.00
2022-09-02T06:54:32.481Z,101118.00
2022-09-02T06:56:59.618Z,101124.00
2022-09-02T06:59:26.977Z,101124.00
2022-09-02T07:01:54.086Z,101124.00
2022-09-02T07:04:39.955Z,101124.00
2022-09-02T07:07:09.237Z,101120.00
2022-09-02T07:09:36.338Z,101128.00
2022-09-02T07:12:05.723Z,101121.00
2022-09-02T07:14:41.645Z,101121.00
2022-09-02T07:17:12.123Z,101127.00
2022-09-02T07:19:39.189Z,101135.00
2022-09-02T07:22:07.149Z,101135.00
2022-09-02T07:24:34.628Z,101132.00
2022-09-02T07:27:02.185Z,101130.00
2022-09-02T07:29:29.386Z,101118.00
2022-09-02T07:31:56.255Z,101117.00
2022-09-02T07:34:23.536Z,101117.00
2022-09-02T07:36:50.998Z,101123.00
2022-09-02T07:39:20.433Z,101121.00
2022-09-02T07:41:52.137Z,101129.00
2022-09-02T07:44:21.321Z,101132.00
2022-09-02T07:46:48.375Z,101106.00
2022-09-02T07:49:16.892Z,101130.00
2022-09-02T07:51:50.079Z,101135.00
2022-09-02T07:54:21.987Z,101133.00
2022-09-02T07:56:49.840Z,101125.00
2022-09-02T07:59:18.151Z,101126.00
2022-09-02T08:01:45.367Z,101122.00
2022-09-02T08:04:13.443Z,101144.00
2022-09-02T08:06:40.821Z,101131.00
2022-09-02T08:09:11.418Z,101133.00
2022-09-02T08:11:47.873Z,101134.00
2022-09-02T08:14:25.107Z,101122.00
2022-09-02T08:16:54.434Z,101126.00
2022-09-02T08:19:22.574Z,101122.00
2022-09-02T08:21:49.890Z,101129.00
2022-09-02T08:24:16.824Z,101118.00
2022-09-02T08:26:43.872Z,101146.00
2022-09-02T08:29:12.234Z,101127.00
2022-09-02T08:31:39.701Z,101124.00
2022-09-02T08:34:06.857Z,101129.00
2022-09-02T08:36:34.235Z,101122.00
2022-09-02T08:39:04.969Z,101134.00
2022-09-02T08:41:52.727Z,101133.00
2022-09-02T08:44:24.337Z,101143.00
2022-09-02T08:46:59.325Z,101140.00
2022-09-02T08:49:50.738Z,101156.00
2022-09-02T08:52:59.951Z,101134.00
2022-09-02T08:55:49.161Z,101149.00
2022-09-02T08:58:19.635Z,101129.00
2022-09-02T09:01:04.508Z,101126.00
2022-09-02T09:04:07.099Z,101148.00
2022-09-02T09:06:54.779Z,101143.00
2022-09-02T09:09:58.016Z,101145.00
2022-09-02T09:12:42.808Z,101151.00
2022-09-02T09:15:20.573Z,101148.00
2022-09-02T09:17:58.223Z,101151.00
2022-09-02T09:20:48.810Z,101157.00
2022-09-02T09:23:39.417Z,101160.00
2022-09-02T09:26:17.074Z,101156.00
2022-09-02T09:28:48.618Z,101162.00
2022-09-02T09:31:21.485Z,101159.00
2022-09-02T09:34:14.844Z,101166.00
2022-09-02T09:36:42.180Z,101168.00
2022-09-02T09:39:29.682Z,101172.00
2022-09-02T09:42:02.948Z,101169.00
2022-09-02T09:44:38.835Z,101175.00
2022-09-02T09:47:19.439Z,101177.00
2022-09-02T09:50:07.101Z,101171.00
2022-09-02T09:52:34.001Z,101175.00
2022-09-02T09:55:25.119Z,101178.00
2022-09-02T09:58:07.428Z,101174.00
2022-09-02T10:00:34.905Z,101179.00
2022-09-02T10:03:08.358Z,101189.00
2022-09-02T10:05:39.049Z,101188.00
2022-09-02T10:08:27.337Z,101185.00
2022-09-02T10:11:05.688Z,101185.00
2022-09-02T10:13:35.607Z,101196.00
2022-09-02T10:16:48.005Z,101191.00
2022-09-02T10:19:54.598Z,101188.00
2022-09-02T10:23:00.059Z,101183.00
2022-09-02T10:25:57.902Z,101187.00
2022-09-02T10:29:04.254Z,101189.00
2022-09-02T10:31:58.581Z,101181.00
2022-09-02T10:35:11.513Z,101184.00
2022-09-02T10:38:05.825Z,101190.00
2022-09-02T10:40:59.899Z,101195.00
2022-09-02T10:44:22.937Z,101198.00
2022-09-02T10:47:07.475Z,101181.00
2022-09-02T10:50:01.003Z,101191.00
2022-09-02T10:52:35.420Z,101172.00
2022-09-02T10:55:26.012Z,101166.00
2022-09-02T10:58:03.490Z,101179.00
2022-09-02T11:00:34.277Z,101181.00
2022-09-02T11:03:07.099Z,101168.00
2022-09-02T11:05:43.043Z,101173.00
2022-09-02T11:08:38.938Z,101176.00
2022-09-02T11:11:16.067Z,101175.00
2022-09-02T11:14:15.629Z,101169.00
2022-09-02T11:16:51.871Z,101159.00
2022-09-02T11:19:52.311Z,101166.00
2022-09-02T11:22:33.399Z,101162.00
2022-09-02T11:25:33.273Z,101165.00
2022-09-02T11:28:24.100Z,101153.00
2022-09-02T11:30:59.527Z,101153.00
2022-09-02T11:33:58.365Z,101157.00
2022-09-02T11:36:32.311Z,101152.00
2022-09-02T11:39:10.555Z,101150.00
2022-09-02T11:42:01.425Z,101163.00
2022-09-02T11:45:10.412Z,101146.00
2022-09-02T11:48:12.452Z,101136.00
2022-09-02T11:51:07.619Z,101141.00
2022-09-02T11:53:42.351Z,101129.00
2022-09-02T11:56:39.767Z,101124.00
2022-09-02T11:59:08.445Z,101130.00
2022-09-02T12:01:47.726Z,101110.00
2022-09-02T12:07:08.766Z,101108.00
2022-09-02T12:09:55.062Z,101114.00
2022-09-02T12:12:36.871Z,101112.00
2022-09-02T12:15:08.237Z,101109.00
2022-09-02T12:17:52.041Z,101111.00
2022-09-02T12:20:41.574Z,101100.00
2022-09-02T12:23:11.290Z,101106.00
2022-09-02T12:26:01.836Z,101107.00
2022-09-02T12:28:31.250Z,101084.00
2022-09-02T12:31:05.464Z,101095.00
2022-09-02T12:33:51.804Z,101094.00
2022-09-02T12:36:42.795Z,101106.00
2022-09-02T12:39:23.478Z,101102.00
2022-09-02T12:42:11.416Z,101094.00
2022-09-02T12:45:26.837Z,101093.00
2022-09-02T12:48:17.187Z,101084.00
2022-09-02T12:51:00.125Z,101082.00
2022-09-02T12:53:49.113Z,101079.00
2022-09-02T12:56:15.934Z,101087.00
2022-09-02T12:58:51.877Z,101088.00
2022-09-02T13:02:01.176Z,101068.00
2022-09-02T13:05:08.018Z,101084.00
2022-09-02T13:08:45.963Z,101081.00
2022-09-02T13:11:58.282Z,101084.00
2022-09-02T13:14:43.364Z,101090.00
2022-09-02T13:17:37.166Z,101090.00
2022-09-02T13:20:56.108Z,101079.00
2022-09-02T13:24:11.927Z,101096.00
2022-09-02T13:27:03.301Z,101088.00
2022-09-02T13:30:00.865Z,101077.00
2022-09-02T13:32:31.027Z,101075.00
2022-09-02T13:35:05.359Z,101076.00
2022-09-02T13:37:43.553Z,101078.00
2022-09-02T13:40:36.107Z,101063.00
2022-09-02T13:43:13.923Z,101071.00
2022-09-02T13:45:41.926Z,101067.00
2022-09-02T13:48:37.689Z,101066.00
2022-09-02T13:51:14.690Z,101056.00
2022-09-02T13:56:35.942Z,101059.00
2022-09-02T13:59:02.858Z,101060.00
2022-09-02T14:01:40.126Z,101040.00
2022-09-02T14:04:16.258Z,101057.00
2022-09-02T14:06:47.499Z,101052.00
2022-09-02T14:09:25.811Z,101066.00
2022-09-02T14:11:53.963Z,101069.00
2022-09-02T14:14:24.170Z,101066.00
2022-09-02T14:16:52.627Z,101060.00
2022-09-02T14:19:22.483Z,101064.00
2022-09-02T14:21:56.769Z,101058.00
2022-09-02T14:24:37.017Z,101059.00
2022-09-02T14:27:10.475Z,101055.00
2022-09-02T14:29:46.309Z,101053.00
2022-09-02T14:32:26.463Z,101056.00
2022-09-02T14:35:18.968Z,101070.00
2022-09-02T14:37:59.153Z,101067.00
2022-09-02T14:40:43.394Z,101069.00
2022-09-02T14:43:15.449Z,101068.00
2022-09-02T14:45:49.322Z,101063.00
2022-09-02T14:48:22.190Z,101054.00
2022-09-02T14:50:50.423Z,101067.00
2022-09-02T14:53:23.269Z,101062.00
2022-09-02T14:55:55.976Z,101056.00
2022-09-02T14:58:30.016Z,101065.00
2022-09-02T15:01:00.935Z,101068.00
2022-09-02T15:03:30.958Z,101066.00
2022-09-02T15:05:58.177Z,101068.00
2022-09-02T15:08:25.720Z,101064.00
2022-09-02T15:10:58.076Z,101062.00
2022-09-02T15:13:33.966Z,101061.00
2022-09-02T15:16:02.921Z,101065.00
2022-09-02T15:18:30.186Z,101058.00
2022-09-02T15:20:57.761Z,101059.00
2022-09-02T15:23:25.261Z,101063.00
2022-09-02T15:25:54.532Z,101066.00
2022-09-02T15:28:21.570Z,101071.00
2022-09-02T15:30:48.515Z,101064.00
2022-09-02T15:33:17.614Z,101060.00
2022-09-02T15:35:47.526Z,101060.00
2022-09-02T15:38:14.989Z,101068.00
2022-09-02T15:40:42.014Z,101067.00
2022-09-02T15:43:08.971Z,101067.00
2022-09-02T15:45:45.678Z,101069.00
2022-09-02T15:48:13.011Z,101059.00
2022-09-02T15:50:40.125Z,101066.00
2022-09-02T15:53:07.852Z,101061.00
2022-09-02T15:55:35.143Z,101064.00
2022-09-02T15:58:02.326Z,101070.00
2022-09-02T16:00:32.007Z,101073.00
2022-09-02T16:03:00.392Z,101078.00
2022-09-02T16:05:27.403Z,101075.00
2022-09-02T16:07:54.951Z,101070.00
2022-09-02T16:10:22.318Z,101078.00
2022-09-02T16:12:49.241Z,101084.00
2022-09-02T16:15:16.349Z,101090.00
2022-09-02T16:17:43.333Z,101080.00
2022-09-02T16:20:10.907Z,101086.00
2022-09-02T16:22:37.831Z,101091.00
2022-09-02T16:25:05.552Z,101075.00
2022-09-02T16:27:50.897Z,101080.00
2022-09-02T16:30:18.966Z,101084.00
2022-09-02T16:32:46.575Z,101080.00
2022-09-02T16:35:14.017Z,101077.00
2022-09-02T16:37:40.969Z,101072.00
2022-09-02T16:40:08.876Z,101077.00
2022-09-02T16:42:38.066Z,101071.00
2022-09-02T16:45:06.762Z,101075.00
2022-09-02T16:47:34.328Z,101079.00
2022-09-02T16:50:01.240Z,101068.00
2022-09-02T16:52:28.185Z,101072.00
2022-09-02T16:54:55.128Z,101067.00
2022-09-02T16:57:22.127Z,101072.00
2022-09-02T16:59:49.584Z,101072.00
2022-09-02T17:02:16.616Z,101060.00
2022-09-02T17:04:43.680Z,101068.00
2022-09-02T17:07:10.624Z,101069.00
2022-09-02T17:09:37.861Z,101074.00
2022-09-02T17:12:04.987Z,101082.00
2022-09-02T17:14:32.034Z,101083.00
2022-09-02T17:16:59.119Z,101085.00
2022-09-02T17:19:29.993Z,101080.00
2022-09-02T17:21:59.147Z,101076.00
2022-09-02T17:24:28.232Z,101085.00
2022-09-02T17:26:56.187Z,101088.00
2022-09-02T17:29:48.863Z,101083.00
2022-09-02T17:32:17.877Z,101082.00
2022-09-02T17:34:45.197Z,101086.00
2022-09-02T17:37:12.175Z,101082.00
2022-09-02T17:39:39.172Z,101101.00
2022-09-02T17:42:07.101Z,101094.00
2022-09-02T17:44:38.482Z,101089.00
2022-09-02T17:47:10.407Z,101092.00
2022-09-02T17:49:41.285Z,101094.00
2022-09-02T17:52:09.296Z,101095.00
2022-09-02T17:54:38.727Z,101100.00
2022-09-02T17:57:48.970Z,101108.00
2022-09-02T18:00:23.580Z,101114.00
2022-09-02T18:03:13.299Z,101111.00
2022-09-02T18:05:52.698Z,101110.00
2022-09-02T18:08:35.132Z,101109.00
2022-09-02T18:11:05.375Z,101117.00
2022-09-02T18:13:54.357Z,101119.00
2022-09-02T18:16:55.324Z,101122.00
2022-09-02T18:19:58.800Z,101122.00
2022-09-02T18:22:45.430Z,101124.00
2022-09-02T18:25:49.467Z,101118.00
2022-09-02T18:28:44.214Z,101131.00
2022-09-02T18:31:27.036Z,101127.00
2022-09-02T18:34:16.541Z,101128.00
2022-09-02T18:36:57.940Z,101133.00
2022-09-02T18:39:48.019Z,101135.00
2022-09-02T18:42:48.178Z,101139.00
2022-09-02T18:45:22.508Z,101139.00
2022-09-02T18:47:58.276Z,101136.00
2022-09-02T18:50:49.687Z,101144.00
2022-09-02T18:53:33.942Z,101137.00
2022-09-02T18:56:08.873Z,101139.00
2022-09-02T18:59:11.417Z,101113.00
2022-09-02T19:01:48.329Z,101135.00
2022-09-02T19:04:16.367Z,101130.00
2022-09-02T19:06:43.652Z,101135.00
2022-09-02T19:09:14.999Z,101137.00
2022-09-02T19:11:42.223Z,101135.00
2022-09-02T19:14:09.087Z,101141.00
2022-09-02T19:16:38.853Z,101132.00
2022-09-02T19:19:06.694Z,101146.00
2022-09-02T19:21:47.126Z,101143.00
2022-09-02T19:24:24.860Z,101133.00
2022-09-02T19:27:06.750Z,101136.00
2022-09-02T19:29:39.774Z,101135.00
2022-09-02T19:32:08.224Z,101141.00
2022-09-02T19:34:41.097Z,101121.00
2022-09-02T19:37:11.756Z,101143.00
2022-09-02T19:39:38.936Z,101141.00
2022-09-02T19:42:06.637Z,101139.00
2022-09-02T19:44:33.582Z,101138.00
2022-09-02T19:49:48.164Z,101136.00
2022-09-02T19:52:15.152Z,101133.00
2022-09-02T19:54:42.280Z,101133.00
2022-09-02T19:57:09.534Z,101138.00
2022-09-02T19:59:36.595Z,101132.00
2022-09-02T20:02:04.636Z,101138.00
2022-09-02T20:04:33.239Z,101131.00
2022-09-02T20:07:01.076Z,101132.00
2022-09-02T20:09:29.075Z,101132.00
2022-09-02T20:11:59.423Z,101135.00
2022-09-02T20:14:26.399Z,101131.00
2022-09-02T20:17:02.367Z,101138.00
2022-09-02T20:19:34.829Z,101135.00
2022-09-02T20:22:01.793Z,101140.00
2022-09-02T20:24:32.327Z,101136.00
2022-09-02T20:27:32.872Z,101140.00
2022-09-02T20:30:13.358Z,101137.00
2022-09-02T20:33:19.595Z,101135.00
2022-09-02T20:35:49.470Z,101133.00
2022-09-02T20:38:35.571Z,101133.00
2022-09-02T20:41:25.769Z,101126.00
2022-09-02T20:44:15.998Z,101122.00
2022-09-02T20:47:23.135Z,101136.00
2022-09-02T20:50:32.443Z,101132.00
2022-09-02T20:53:27.007Z,101131.00
2022-09-02T20:56:06.580Z,101126.00
2022-09-02T20:59:10.632Z,101129.00
2022-09-02T21:01:44.385Z,101130.00
2022-09-02T21:04:26.201Z,101125.00
2022-09-02T21:07:02.358Z,101127.00
2022-09-02T21:09:59.128Z,101128.00
2022-09-02T21:12:58.063Z,101136.00
2022-09-02T21:15:35.505Z,101135.00
2022-09-02T21:18:20.587Z,101139.00
2022-09-02T21:21:01.515Z,101135.00
2022-09-02T21:23:41.465Z,101140.00
2022-09-02T21:26:18.282Z,101139.00
2022-09-02T21:29:00.142Z,101123.00
2022-09-02T21:31:41.315Z,101127.00
2022-09-02T21:34:20.297Z,101141.00
2022-09-02T21:36:47.474Z,101141.00
2022-09-02T21:39:19.213Z,101142.00
2022-09-02T21:42:15.312Z,101123.00
2022-09-02T21:45:07.654Z,101138.00
2022-09-02T21:47:42.890Z,101141.00
2022-09-02T21:50:15.735Z,101137.00
2022-09-02T21:53:09.595Z,101138.00
2022-09-02T21:56:12.599Z,101136.00
2022-09-02T21:59:15.298Z,101131.00
2022-09-02T22:02:08.775Z,101127.00
2022-09-02T22:04:55.528Z,101124.00
2022-09-02T22:07:31.123Z,101118.00
2022-09-02T22:10:30.695Z,101125.00
2022-09-02T22:13:01.252Z,101113.00
2022-09-02T22:15:42.632Z,101113.00
2022-09-02T22:18:31.874Z,101127.00
2022-09-02T22:21:08.157Z,101127.00
2022-09-02T22:23:36.255Z,101119.00
2022-09-02T22:26:39.136Z,101129.00
2022-09-02T22:29:47.677Z,101135.00
2022-09-02T22:32:20.303Z,101126.00
2022-09-02T22:35:09.522Z,101129.00
2022-09-02T22:38:16.692Z,101136.00
2022-09-02T22:40:51.658Z,101132.00
2022-09-02T22:43:36.074Z,101124.00
2022-09-02T22:46:35.528Z,101138.00
2022-09-02T22:49:27.997Z,101133.00
2022-09-02T22:52:21.544Z,101140.00
2022-09-02T22:54:48.575Z,101137.00
2022-09-02T22:58:11.921Z,101143.00
2022-09-02T23:01:17.275Z,101128.00
2022-09-02T23:04:26.948Z,101136.00
2022-09-02T23:06:58.993Z,101133.00
2022-09-02T23:09:25.989Z,101116.00
2022-09-02T23:12:28.781Z,101131.00
2022-09-02T23:15:27.228Z,101138.00
2022-09-02T23:18:21.777Z,101132.00
2022-09-02T23:21:09.946Z,101131.00
2022-09-02T23:24:14.736Z,101129.00
2022-09-02T23:27:09.533Z,101129.00
2022-09-02T23:29:40.072Z,101121.00
2022-09-02T23:32:30.059Z,101121.00
2022-09-02T23:35:20.244Z,101122.00
2022-09-02T23:38:00.262Z,101126.00
2022-09-02T23:40:38.452Z,101119.00
2022-09-02T23:43:05.284Z,101130.00
2022-09-02T23:45:34.734Z,101128.00
2022-09-02T23:48:54.790Z,101121.00
2022-09-02T23:51:51.392Z,101125.00
2022-09-02T23:55:01.074Z,101120.00
2022-09-02T23:57:51.558Z,101128.00
